sensor_id;sensor_type;location;lat;lon;timestamp;pressure;altitude;pressure_sealevel;temperature;humidity
4745;BME280;2386;42.138;24.746;2022-10-19T00:03:30;100274.59;;;10.02;73.29
4745;BME280;2386;42.138;24.746;2022-10-19T00:05:56;100265.44;;;9.89;74.70
4745;BME280;2386;42.138;24.746;2022-10-19T00:08:21;100262.09;;;9.94;75.64
4745;BME280;2386;42.138;24.746;2022-10-19T00:10:48;100251.69;;;9.78;75.93
4745;BME280;2386;42.138;24.746;2022-10-19T00:13:13;100264.59;;;9.82;75.54
4745;BME280;2386;42.138;24.746;2022-10-19T00:15:39;100262.09;;;9.74;76.61
4745;BME280;2386;42.138;24.746;2022-10-19T00:18:06;100253.34;;;9.72;77.19
4745;BME280;2386;42.138;24.746;2022-10-19T00:20:32;100246.94;;;9.53;76.97
4745;BME280;2386;42.138;24.746;2022-10-19T00:22:59;100244.44;;;9.65;78.17
4745;BME280;2386;42.138;24.746;2022-10-19T00:25:30;100232.34;;;9.61;77.05
4745;BME280;2386;42.138;24.746;2022-10-19T00:27:56;100215.91;;;9.49;77.39
4745;BME280;2386;42.138;24.746;2022-10-19T00:30:21;100226.31;;;9.59;77.70
4745;BME280;2386;42.138;24.746;2022-10-19T00:32:46;100219.66;;;9.55;77.55
4745;BME280;2386;42.138;24.746;2022-10-19T00:35:12;100232.34;;;9.54;76.57
4745;BME280;2386;42.138;24.746;2022-10-19T00:37:37;100224.22;;;9.61;76.45
4745;BME280;2386;42.138;24.746;2022-10-19T00:40:03;100228.81;;;9.61;76.76
4745;BME280;2386;42.138;24.746;2022-10-19T00:42:28;100226.28;;;9.72;76.77
4745;BME280;2386;42.138;24.746;2022-10-19T00:44:58;100217.09;;;9.67;77.71
4745;BME280;2386;42.138;24.746;2022-10-19T00:47:24;100221.69;;;9.66;77.56
4745;BME280;2386;42.138;24.746;2022-10-19T00:49:50;100206.72;;;9.57;77.68
4745;BME280;2386;42.138;24.746;2022-10-19T00:52:19;100200.91;;;9.60;77.84
4745;BME280;2386;42.138;24.746;2022-10-19T00:54:46;100195.84;;;9.70;77.45
4745;BME280;2386;42.138;24.746;2022-10-19T00:57:13;100192.56;;;9.55;76.67
4745;BME280;2386;42.138;24.746;2022-10-19T00:59:42;100187.16;;;9.62;76.81
4745;BME280;2386;42.138;24.746;2022-10-19T01:02:09;100182.97;;;9.59;76.59
4745;BME280;2386;42.138;24.746;2022-10-19T01:04:37;100179.19;;;9.67;75.61
4745;BME280;2386;42.138;24.746;2022-10-19T01:07:06;100174.22;;;9.57;76.34
4745;BME280;2386;42.138;24.746;2022-10-19T01:09:32;100172.94;;;9.73;76.18
4745;BME280;2386;42.138;24.746;2022-10-19T01:12:42;100175.19;;;9.82;74.74
4745;BME280;2386;42.138;24.746;2022-10-19T01:15:23;100168.34;;;9.73;75.63
4745;BME280;2386;42.138;24.746;2022-10-19T01:18:05;100172.69;;;9.81;76.07
4745;BME280;2386;42.138;24.746;2022-10-19T01:29:17;100156.47;;;9.68;76.01
4745;BME280;2386;42.138;24.746;2022-10-19T01:31:59;100152.56;;;9.57;77.18
4745;BME280;2386;42.138;24.746;2022-10-19T01:34:31;100147.16;;;9.57;76.52
4745;BME280;2386;42.138;24.746;2022-10-19T01:42:13;100137.41;;;9.30;75.84
4745;BME280;2386;42.138;24.746;2022-10-19T01:45:07;100138.63;;;9.47;75.63
4745;BME280;2386;42.138;24.746;2022-10-19T01:47:44;100130.94;;;9.44;76.16
4745;BME280;2386;42.138;24.746;2022-10-19T01:52:47;100126.75;;;9.41;76.55
4745;BME280;2386;42.138;24.746;2022-10-19T01:55:14;100131.31;;;9.54;75.55
4745;BME280;2386;42.138;24.746;2022-10-19T01:57:51;100141.94;;;9.49;77.42
4745;BME280;2386;42.138;24.746;2022-10-19T02:00:21;100137.16;;;9.44;76.67
4745;BME280;2386;42.138;24.746;2022-10-19T02:02:49;100143.00;;;9.54;76.84
4745;BME280;2386;42.138;24.746;2022-10-19T02:05:17;100131.16;;;9.22;78.53
4745;BME280;2386;42.138;24.746;2022-10-19T02:07:48;100127.41;;;9.17;80.21
4745;BME280;2386;42.138;24.746;2022-10-19T02:10:16;100134.47;;;9.25;80.24
4745;BME280;2386;42.138;24.746;2022-10-19T02:12:42;100128.44;;;9.36;78.72
4745;BME280;2386;42.138;24.746;2022-10-19T02:15:13;100130.53;;;9.07;79.34
4745;BME280;2386;42.138;24.746;2022-10-19T02:17:43;100127.19;;;9.18;77.61
4745;BME280;2386;42.138;24.746;2022-10-19T02:20:10;100124.06;;;9.08;78.18
4745;BME280;2386;42.138;24.746;2022-10-19T02:22:36;100112.44;;;8.81;77.51
4745;BME280;2386;42.138;24.746;2022-10-19T02:25:02;100108.91;;;8.81;78.64
4745;BME280;2386;42.138;24.746;2022-10-19T02:27:27;100094.75;;;8.85;78.58
4745;BME280;2386;42.138;24.746;2022-10-19T02:29:53;100105.75;;;8.97;76.98
4745;BME280;2386;42.138;24.746;2022-10-19T02:32:19;100104.31;;;8.95;76.64
4745;BME280;2386;42.138;24.746;2022-10-19T02:34:44;100104.34;;;8.88;77.97
4745;BME280;2386;42.138;24.746;2022-10-19T02:37:10;100113.47;;;8.94;78.13
4745;BME280;2386;42.138;24.746;2022-10-19T02:39:37;100099.53;;;8.90;79.06
4745;BME280;2386;42.138;24.746;2022-10-19T02:42:08;100107.22;;;9.00;77.09
4745;BME280;2386;42.138;24.746;2022-10-19T02:47:44;100107.22;;;8.93;77.86
4745;BME280;2386;42.138;24.746;2022-10-19T02:50:13;100096.81;;;8.70;77.01
4745;BME280;2386;42.138;24.746;2022-10-19T02:52:39;100094.97;;;8.71;77.06
4745;BME280;2386;42.138;24.746;2022-10-19T02:55:06;100085.38;;;8.68;77.42
4745;BME280;2386;42.138;24.746;2022-10-19T02:57:31;100074.78;;;8.67;77.21
4745;BME280;2386;42.138;24.746;2022-10-19T02:59:57;100091.41;;;8.70;78.11
4745;BME280;2386;42.138;24.746;2022-10-19T03:02:23;100092.47;;;8.82;76.73
4745;BME280;2386;42.138;24.746;2022-10-19T03:04:49;100083.09;;;8.59;78.87
4745;BME280;2386;42.138;24.746;2022-10-19T03:07:16;100091.00;;;8.60;77.34
4745;BME280;2386;42.138;24.746;2022-10-19T03:09:44;100088.91;;;8.62;77.61
4745;BME280;2386;42.138;24.746;2022-10-19T03:12:11;100088.50;;;8.59;78.78
4745;BME280;2386;42.138;24.746;2022-10-19T03:14:36;100086.41;;;8.61;78.66
4745;BME280;2386;42.138;24.746;2022-10-19T03:17:02;100089.31;;;8.52;78.71
4745;BME280;2386;42.138;24.746;2022-10-19T03:19:28;100084.72;;;8.40;79.89
4745;BME280;2386;42.138;24.746;2022-10-19T03:21:53;100083.91;;;8.46;80.36
4745;BME280;2386;42.138;24.746;2022-10-19T03:24:21;100083.91;;;8.52;79.92
4745;BME280;2386;42.138;24.746;2022-10-19T03:26:46;100082.06;;;8.60;78.88
4745;BME280;2386;42.138;24.746;2022-10-19T03:29:13;100074.75;;;8.47;80.28
4745;BME280;2386;42.138;24.746;2022-10-19T03:31:39;100061.44;;;8.45;78.34
4745;BME280;2386;42.138;24.746;2022-10-19T03:34:04;100076.84;;;8.65;77.75
4745;BME280;2386;42.138;24.746;2022-10-19T03:36:32;100063.75;;;8.55;79.18
4745;BME280;2386;42.138;24.746;2022-10-19T03:39:00;100075.19;;;8.70;78.67
4745;BME280;2386;42.138;24.746;2022-10-19T03:41:28;100071.44;;;8.65;78.82
4745;BME280;2386;42.138;24.746;2022-10-19T03:43:54;100074.34;;;8.56;78.76
4745;BME280;2386;42.138;24.746;2022-10-19T03:46:19;100067.72;;;8.72;77.68
4745;BME280;2386;42.138;24.746;2022-10-19T03:48:45;100062.09;;;8.61;79.08
4745;BME280;2386;42.138;24.746;2022-10-19T03:51:14;100067.06;;;8.64;79.00
4745;BME280;2386;42.138;24.746;2022-10-19T03:53:40;100065.19;;;8.44;80.03
4745;BME280;2386;42.138;24.746;2022-10-19T03:56:14;100062.69;;;8.36;79.81
4745;BME280;2386;42.138;24.746;2022-10-19T03:58:41;100071.00;;;8.41;81.12
4745;BME280;2386;42.138;24.746;2022-10-19T04:01:13;100065.13;;;8.31;82.53
4745;BME280;2386;42.138;24.746;2022-10-19T04:03:38;100053.09;;;8.34;82.72
4745;BME280;2386;42.138;24.746;2022-10-19T04:06:10;100055.59;;;8.35;80.87
4745;BME280;2386;42.138;24.746;2022-10-19T04:08:36;100047.09;;;8.38;82.58
4745;BME280;2386;42.138;24.746;2022-10-19T04:11:04;100057.06;;;8.44;80.96
4745;BME280;2386;42.138;24.746;2022-10-19T04:13:30;100053.75;;;8.42;81.31
4745;BME280;2386;42.138;24.746;2022-10-19T04:15:57;100042.88;;;8.16;80.96
4745;BME280;2386;42.138;24.746;2022-10-19T04:18:23;100051.81;;;8.10;81.37
4745;BME280;2386;42.138;24.746;2022-10-19T04:20:57;100055.97;;;8.32;81.19
4745;BME280;2386;42.138;24.746;2022-10-19T04:23:25;100035.81;;;8.15;82.77
4745;BME280;2386;42.138;24.746;2022-10-19T04:25:51;100041.38;;;8.00;82.92
4745;BME280;2386;42.138;24.746;2022-10-19T04:28:16;100039.56;;;8.14;84.46
4745;BME280;2386;42.138;24.746;2022-10-19T04:30:42;100050.56;;;8.12;85.07
4745;BME280;2386;42.138;24.746;2022-10-19T04:33:07;100030.63;;;8.13;85.92
4745;BME280;2386;42.138;24.746;2022-10-19T04:35:32;100023.34;;;8.27;84.50
4745;BME280;2386;42.138;24.746;2022-10-19T04:37:58;100034.00;;;8.42;84.69
4745;BME280;2386;42.138;24.746;2022-10-19T04:40:24;100036.91;;;8.40;84.38
4745;BME280;2386;42.138;24.746;2022-10-19T04:42:49;100027.28;;;8.31;84.49
4745;BME280;2386;42.138;24.746;2022-10-19T04:45:15;100015.69;;;8.37;83.40
4745;BME280;2386;42.138;24.746;2022-10-19T04:47:40;100014.88;;;8.50;82.27
4745;BME280;2386;42.138;24.746;2022-10-19T04:50:06;100031.09;;;8.63;82.59
4745;BME280;2386;42.138;24.746;2022-10-19T04:52:31;100007.78;;;8.62;82.84
4745;BME280;2386;42.138;24.746;2022-10-19T04:55:00;100008.41;;;8.64;82.42
4745;BME280;2386;42.138;24.746;2022-10-19T04:57:26;100016.53;;;8.84;81.75
4745;BME280;2386;42.138;24.746;2022-10-19T04:59:51;100021.94;;;8.71;81.55
4745;BME280;2386;42.138;24.746;2022-10-19T05:02:16;100020.91;;;8.78;79.08
4745;BME280;2386;42.138;24.746;2022-10-19T05:04:42;100023.59;;;8.78;78.70
4745;BME280;2386;42.138;24.746;2022-10-19T05:07:07;100029.22;;;8.64;79.80
4745;BME280;2386;42.138;24.746;2022-10-19T05:09:33;100022.34;;;8.81;78.42
4745;BME280;2386;42.138;24.746;2022-10-19T05:11:58;100023.59;;;8.78;80.56
4745;BME280;2386;42.138;24.746;2022-10-19T05:14:24;100019.44;;;8.63;80.01
4745;BME280;2386;42.138;24.746;2022-10-19T05:16:50;100010.91;;;8.79;79.50
4745;BME280;2386;42.138;24.746;2022-10-19T05:19:17;100020.06;;;8.91;79.22
4745;BME280;2386;42.138;24.746;2022-10-19T05:21:42;100014.66;;;8.91;80.27
4745;BME280;2386;42.138;24.746;2022-10-19T05:24:10;100025.81;;;9.08;78.69
4745;BME280;2386;42.138;24.746;2022-10-19T05:26:36;100025.00;;;9.01;76.85
4745;BME280;2386;42.138;24.746;2022-10-19T05:29:05;100018.63;;;8.75;77.78
4745;BME280;2386;42.138;24.746;2022-10-19T05:31:41;100027.97;;;8.73;78.23
4745;BME280;2386;42.138;24.746;2022-10-19T05:34:11;100015.91;;;8.82;77.75
4745;BME280;2386;42.138;24.746;2022-10-19T05:36:38;100022.75;;;8.91;77.18
4745;BME280;2386;42.138;24.746;2022-10-19T05:39:16;100031.91;;;8.90;78.27
4745;BME280;2386;42.138;24.746;2022-10-19T05:41:43;100018.38;;;8.90;77.88
4745;BME280;2386;42.138;24.746;2022-10-19T05:44:13;100027.50;;;9.02;76.83
4745;BME280;2386;42.138;24.746;2022-10-19T05:46:39;100032.91;;;9.02;77.02
4745;BME280;2386;42.138;24.746;2022-10-19T05:49:04;100022.28;;;9.07;77.21
4745;BME280;2386;42.138;24.746;2022-10-19T05:51:30;100027.69;;;9.07;76.80
4745;BME280;2386;42.138;24.746;2022-10-19T05:53:56;100020.63;;;9.00;76.12
4745;BME280;2386;42.138;24.746;2022-10-19T05:56:24;100032.66;;;9.23;74.88
4745;BME280;2386;42.138;24.746;2022-10-19T05:58:51;100039.13;;;9.16;74.69
4745;BME280;2386;42.138;24.746;2022-10-19T06:01:17;100029.56;;;9.13;73.92
4745;BME280;2386;42.138;24.746;2022-10-19T06:03:43;100029.56;;;9.13;74.72
4745;BME280;2386;42.138;24.746;2022-10-19T06:06:09;100028.13;;;9.11;75.00
4745;BME280;2386;42.138;24.746;2022-10-19T06:08:36;100019.78;;;9.12;75.30
4745;BME280;2386;42.138;24.746;2022-10-19T06:11:13;100031.03;;;9.09;75.88
4745;BME280;2386;42.138;24.746;2022-10-19T06:13:39;100032.66;;;9.23;75.10
4745;BME280;2386;42.138;24.746;2022-10-19T06:16:07;100030.19;;;9.15;74.98
4745;BME280;2386;42.138;24.746;2022-10-19T06:18:33;100028.94;;;9.18;74.91
4745;BME280;2386;42.138;24.746;2022-10-19T06:21:07;100028.06;;;9.31;74.60
4745;BME280;2386;42.138;24.746;2022-10-19T06:23:40;100037.44;;;9.35;73.99
4745;BME280;2386;42.138;24.746;2022-10-19T06:26:08;100026.78;;;9.40;73.94
4745;BME280;2386;42.138;24.746;2022-10-19T06:28:33;100033.84;;;9.54;73.52
4745;BME280;2386;42.138;24.746;2022-10-19T06:30:59;100029.25;;;9.54;72.95
4745;BME280;2386;42.138;24.746;2022-10-19T06:33:28;100019.16;;;9.68;74.39
4745;BME280;2386;42.138;24.746;2022-10-19T06:36:14;100028.09;;;9.75;73.31
4745;BME280;2386;42.138;24.746;2022-10-19T06:38:40;100020.34;;;9.85;72.63
4745;BME280;2386;42.138;24.746;2022-10-19T06:41:05;100020.50;;;9.97;72.40
4745;BME280;2386;42.138;24.746;2022-10-19T06:43:31;100017.69;;;10.10;70.45
4745;BME280;2386;42.138;24.746;2022-10-19T06:45:57;100020.19;;;10.12;69.72
4745;BME280;2386;42.138;24.746;2022-10-19T06:48:22;100011.19;;;10.18;70.55
4745;BME280;2386;42.138;24.746;2022-10-19T06:50:55;100010.91;;;10.33;70.69
4745;BME280;2386;42.138;24.746;2022-10-19T06:53:21;100000.59;;;10.41;70.90
4745;BME280;2386;42.138;24.746;2022-10-19T06:55:46;99993.69;;;10.45;70.11
4745;BME280;2386;42.138;24.746;2022-10-19T06:58:12;99994.81;;;10.63;71.72
4745;BME280;2386;42.138;24.746;2022-10-19T07:00:37;99998.91;;;10.72;69.07
4745;BME280;2386;42.138;24.746;2022-10-19T07:03:02;100007.53;;;10.87;68.39
4745;BME280;2386;42.138;24.746;2022-10-19T07:05:28;99999.31;;;10.94;67.10
4745;BME280;2386;42.138;24.746;2022-10-19T07:07:53;100007.03;;;10.97;65.29
4745;BME280;2386;42.138;24.746;2022-10-19T07:10:19;99991.88;;;11.07;64.00
4745;BME280;2386;42.138;24.746;2022-10-19T07:12:44;99998.66;;;11.16;62.97
4745;BME280;2386;42.138;24.746;2022-10-19T07:15:10;100000.00;;;11.26;62.69
4745;BME280;2386;42.138;24.746;2022-10-19T07:17:35;99982.81;;;11.32;62.96
4745;BME280;2386;42.138;24.746;2022-10-19T07:20:01;99986.28;;;11.39;62.70
4745;BME280;2386;42.138;24.746;2022-10-19T07:22:26;99985.75;;;11.48;61.86
4745;BME280;2386;42.138;24.746;2022-10-19T07:24:51;99984.63;;;11.56;61.85
4745;BME280;2386;42.138;24.746;2022-10-19T07:27:17;99995.69;;;11.73;61.93
4745;BME280;2386;42.138;24.746;2022-10-19T07:29:43;99980.63;;;11.89;61.57
4745;BME280;2386;42.138;24.746;2022-10-19T07:32:08;99978.06;;;11.94;60.59
4745;BME280;2386;42.138;24.746;2022-10-19T07:34:34;99967.59;;;12.09;60.41
4745;BME280;2386;42.138;24.746;2022-10-19T07:37:00;99967.38;;;12.22;59.68
4745;BME280;2386;42.138;24.746;2022-10-19T07:39:26;99972.03;;;12.33;59.50
4745;BME280;2386;42.138;24.746;2022-10-19T07:41:51;99959.84;;;12.36;61.05
4745;BME280;2386;42.138;24.746;2022-10-19T07:44:19;99952.28;;;12.38;61.36
4745;BME280;2386;42.138;24.746;2022-10-19T07:46:44;99952.78;;;12.46;61.05
4745;BME280;2386;42.138;24.746;2022-10-19T07:49:13;99956.44;;;12.64;59.62
4745;BME280;2386;42.138;24.746;2022-10-19T07:51:40;99952.75;;;12.70;57.89
4745;BME280;2386;42.138;24.746;2022-10-19T07:54:06;99950.28;;;12.80;58.00
4745;BME280;2386;42.138;24.746;2022-10-19T07:56:32;99944.00;;;12.91;58.53
4745;BME280;2386;42.138;24.746;2022-10-19T07:58:58;99949.69;;;12.78;55.24
4745;BME280;2386;42.138;24.746;2022-10-19T08:01:26;99933.69;;;12.93;55.05
4745;BME280;2386;42.138;24.746;2022-10-19T08:03:54;99937.84;;;13.07;53.72
4745;BME280;2386;42.138;24.746;2022-10-19T08:06:21;99935.13;;;13.19;55.87
4745;BME280;2386;42.138;24.746;2022-10-19T08:08:49;99930.59;;;13.25;53.89
4745;BME280;2386;42.138;24.746;2022-10-19T08:11:17;99933.53;;;13.35;54.78
4745;BME280;2386;42.138;24.746;2022-10-19T08:13:43;99937.34;;;13.34;53.41
4745;BME280;2386;42.138;24.746;2022-10-19T08:16:34;99931.81;;;13.45;51.27
4745;BME280;2386;42.138;24.746;2022-10-19T08:19:06;99923.03;;;13.55;51.59
4745;BME280;2386;42.138;24.746;2022-10-19T08:21:34;99927.41;;;13.56;51.68
4745;BME280;2386;42.138;24.746;2022-10-19T08:24:00;99922.88;;;13.62;50.97
4745;BME280;2386;42.138;24.746;2022-10-19T08:26:30;99927.22;;;13.74;50.00
4745;BME280;2386;42.138;24.746;2022-10-19T08:29:04;99917.91;;;13.87;49.80
4745;BME280;2386;42.138;24.746;2022-10-19T08:31:31;99912.91;;;13.96;50.83
4745;BME280;2386;42.138;24.746;2022-10-19T08:33:56;99903.47;;;14.03;51.66
4745;BME280;2386;42.138;24.746;2022-10-19T08:36:22;99895.69;;;14.12;52.71
4745;BME280;2386;42.138;24.746;2022-10-19T08:38:48;99900.66;;;14.15;50.43
4745;BME280;2386;42.138;24.746;2022-10-19T08:41:20;99906.53;;;14.24;51.36
4745;BME280;2386;42.138;24.746;2022-10-19T08:49:35;99885.31;;;14.42;48.36
4745;BME280;2386;42.138;24.746;2022-10-19T08:52:04;99887.03;;;14.49;48.42
4745;BME280;2386;42.138;24.746;2022-10-19T08:57:40;99879.41;;;14.67;49.71
4745;BME280;2386;42.138;24.746;2022-10-19T09:03:24;99890.53;;;14.83;49.58
4745;BME280;2386;42.138;24.746;2022-10-19T09:08:24;99878.41;;;14.95;47.53
4745;BME280;2386;42.138;24.746;2022-10-19T09:10:51;99880.13;;;15.01;47.91
4745;BME280;2386;42.138;24.746;2022-10-19T09:15:51;99882.66;;;15.08;47.69
4745;BME280;2386;42.138;24.746;2022-10-19T09:18:27;99883.56;;;15.13;46.28
4745;BME280;2386;42.138;24.746;2022-10-19T09:21:03;99876.00;;;15.21;47.38
4745;BME280;2386;42.138;24.746;2022-10-19T09:26:03;99868.81;;;15.36;46.92
4745;BME280;2386;42.138;24.746;2022-10-19T09:28:42;99863.13;;;15.43;47.04
4745;BME280;2386;42.138;24.746;2022-10-19T09:31:15;99860.47;;;15.48;47.30
4745;BME280;2386;42.138;24.746;2022-10-19T09:33:49;99853.66;;;15.51;47.46
4745;BME280;2386;42.138;24.746;2022-10-19T09:36:16;99854.78;;;15.55;47.04
4745;BME280;2386;42.138;24.746;2022-10-19T09:38:41;99846.09;;;15.58;46.64
4745;BME280;2386;42.138;24.746;2022-10-19T09:41:19;99840.97;;;15.66;46.12
4745;BME280;2386;42.138;24.746;2022-10-19T09:43:49;99832.03;;;15.76;45.59
4745;BME280;2386;42.138;24.746;2022-10-19T09:46:36;99834.88;;;15.86;46.22
4745;BME280;2386;42.138;24.746;2022-10-19T09:49:05;99834.66;;;15.93;47.04
4745;BME280;2386;42.138;24.746;2022-10-19T09:51:44;99830.31;;;15.97;45.30
4745;BME280;2386;42.138;24.746;2022-10-19T09:56:57;99824.91;;;16.07;44.31
4745;BME280;2386;42.138;24.746;2022-10-19T09:59:28;99815.94;;;16.12;44.15
4745;BME280;2386;42.138;24.746;2022-10-19T10:02:17;99807.19;;;16.15;43.62
4745;BME280;2386;42.138;24.746;2022-10-19T10:07:34;99806.47;;;16.29;42.63
4745;BME280;2386;42.138;24.746;2022-10-19T10:10:20;99795.25;;;16.36;43.16
4745;BME280;2386;42.138;24.746;2022-10-19T10:12:48;99797.78;;;16.42;42.99
4745;BME280;2386;42.138;24.746;2022-10-19T10:15:25;99797.25;;;16.46;43.06
4745;BME280;2386;42.138;24.746;2022-10-19T10:18:00;99793.16;;;16.48;43.60
4745;BME280;2386;42.138;24.746;2022-10-19T10:20:30;99778.59;;;16.42;43.52
4745;BME280;2386;42.138;24.746;2022-10-19T10:23:01;99770.13;;;16.44;44.98
4745;BME280;2386;42.138;24.746;2022-10-19T10:25:36;99777.00;;;16.52;45.31
4745;BME280;2386;42.138;24.746;2022-10-19T10:28:20;99775.94;;;16.58;44.84
4745;BME280;2386;42.138;24.746;2022-10-19T10:30:46;99762.53;;;16.56;44.84
4745;BME280;2386;42.138;24.746;2022-10-19T10:33:17;99768.59;;;16.63;43.51
4745;BME280;2386;42.138;24.746;2022-10-19T10:35:49;99765.66;;;16.75;43.59
4745;BME280;2386;42.138;24.746;2022-10-19T10:38:22;99758.03;;;16.87;41.30
4745;BME280;2386;42.138;24.746;2022-10-19T10:40:56;99754.53;;;17.02;42.77
4745;BME280;2386;42.138;24.746;2022-10-19T10:43:30;99741.66;;;17.07;42.68
4745;BME280;2386;42.138;24.746;2022-10-19T10:46:06;99739.44;;;17.09;41.53
4745;BME280;2386;42.138;24.746;2022-10-19T10:48:43;99745.50;;;17.22;42.25
4745;BME280;2386;42.138;24.746;2022-10-19T10:51:19;99727.94;;;17.23;40.89
4745;BME280;2386;42.138;24.746;2022-10-19T10:53:45;99733.47;;;17.33;41.02
4745;BME280;2386;42.138;24.746;2022-10-19T10:56:21;99724.69;;;17.41;41.67
4745;BME280;2386;42.138;24.746;2022-10-19T10:58:53;99721.94;;;17.41;40.99
4745;BME280;2386;42.138;24.746;2022-10-19T11:01:28;99719.75;;;17.58;40.96
4745;BME280;2386;42.138;24.746;2022-10-19T11:04:11;99712.94;;;17.71;40.80
4745;BME280;2386;42.138;24.746;2022-10-19T11:06:42;99715.41;;;17.78;39.11
4745;BME280;2386;42.138;24.746;2022-10-19T11:09:33;99704.94;;;17.85;39.89
4745;BME280;2386;42.138;24.746;2022-10-19T11:12:04;99706.03;;;17.94;39.51
4745;BME280;2386;42.138;24.746;2022-10-19T11:14:44;99704.09;;;18.04;39.37
4745;BME280;2386;42.138;24.746;2022-10-19T11:17:27;99706.53;;;18.11;38.96
4745;BME280;2386;42.138;24.746;2022-10-19T11:19:54;99696.13;;;18.08;37.88
4745;BME280;2386;42.138;24.746;2022-10-19T11:22:37;99692.25;;;18.19;38.09
4745;BME280;2386;42.138;24.746;2022-10-19T11:31:19;99681.47;;;18.43;37.50
4745;BME280;2386;42.138;24.746;2022-10-19T11:33:56;99662.50;;;18.47;38.74
4745;BME280;2386;42.138;24.746;2022-10-19T11:42:33;99664.00;;;18.73;38.26
4745;BME280;2386;42.138;24.746;2022-10-19T11:45:05;99666.25;;;18.66;39.21
4745;BME280;2386;42.138;24.746;2022-10-19T11:47:47;99665.69;;;18.69;38.37
4745;BME280;2386;42.138;24.746;2022-10-19T11:53:31;99660.59;;;18.91;36.32
4745;BME280;2386;42.138;24.746;2022-10-19T11:56:23;99657.78;;;19.01;37.40
4745;BME280;2386;42.138;24.746;2022-10-19T11:59:18;99651.47;;;19.01;37.48
4745;BME280;2386;42.138;24.746;2022-10-19T12:04:22;99649.63;;;18.91;37.72
4745;BME280;2386;42.138;24.746;2022-10-19T12:12:30;99633.59;;;19.03;36.57
4745;BME280;2386;42.138;24.746;2022-10-19T12:15:32;99625.22;;;19.19;37.14
4745;BME280;2386;42.138;24.746;2022-10-19T12:18:13;99621.97;;;19.12;37.62
4745;BME280;2386;42.138;24.746;2022-10-19T12:20:46;99615.13;;;19.09;37.94
4745;BME280;2386;42.138;24.746;2022-10-19T12:25:42;99626.66;;;19.11;38.33
4745;BME280;2386;42.138;24.746;2022-10-19T12:28:17;99607.41;;;19.11;36.26
4745;BME280;2386;42.138;24.746;2022-10-19T12:30:45;99606.31;;;19.12;37.26
4745;BME280;2386;42.138;24.746;2022-10-19T12:33:19;99601.28;;;19.19;35.47
4745;BME280;2386;42.138;24.746;2022-10-19T12:41:18;99588.72;;;19.37;35.22
4745;BME280;2386;42.138;24.746;2022-10-19T12:51:56;99577.03;;;19.26;49.09
4745;BME280;2386;42.138;24.746;2022-10-19T12:54:28;99576.53;;;19.19;41.54
4745;BME280;2386;42.138;24.746;2022-10-19T12:57:24;99580.16;;;19.15;48.22
4745;BME280;2386;42.138;24.746;2022-10-19T13:00:00;99569.69;;;19.17;52.49
4745;BME280;2386;42.138;24.746;2022-10-19T13:02:34;99572.47;;;19.12;40.30
4745;BME280;2386;42.138;24.746;2022-10-19T13:05:01;99551.38;;;19.02;39.82
4745;BME280;2386;42.138;24.746;2022-10-19T13:07:30;99556.66;;;18.98;39.93
4745;BME280;2386;42.138;24.746;2022-10-19T13:10:00;99550.09;;;18.94;39.59
4745;BME280;2386;42.138;24.746;2022-10-19T13:12:28;99553.41;;;18.91;38.85
4745;BME280;2386;42.138;24.746;2022-10-19T13:15:04;99545.72;;;18.88;38.54
4745;BME280;2386;42.138;24.746;2022-10-19T13:25:31;99550.88;;;19.29;35.31
4745;BME280;2386;42.138;24.746;2022-10-19T13:36:08;99549.41;;;19.08;36.62
4745;BME280;2386;42.138;24.746;2022-10-19T13:51:22;99537.75;;;19.21;35.42
4745;BME280;2386;42.138;24.746;2022-10-19T13:59:26;99531.91;;;19.27;35.00
4745;BME280;2386;42.138;24.746;2022-10-19T14:02:46;99530.50;;;19.30;34.62
4745;BME280;2386;42.138;24.746;2022-10-19T14:04:50;99508.03;;;19.23;35.07
4745;BME280;2386;42.138;24.746;2022-10-19T14:07:24;99525.59;;;19.27;35.38
4745;BME280;2386;42.138;24.746;2022-10-19T14:10:04;99529.47;;;19.26;35.33
4745;BME280;2386;42.138;24.746;2022-10-19T14:12:34;99515.69;;;19.26;34.96
4745;BME280;2386;42.138;24.746;2022-10-19T14:15:32;99507.22;;;19.22;35.60
4745;BME280;2386;42.138;24.746;2022-10-19T14:17:56;99507.22;;;19.22;35.33
4745;BME280;2386;42.138;24.746;2022-10-19T14:22:57;99522.56;;;19.28;35.67
4745;BME280;2386;42.138;24.746;2022-10-19T14:25:25;99509.13;;;19.22;35.88
4745;BME280;2386;42.138;24.746;2022-10-19T14:28:04;99508.09;;;19.18;36.46
4745;BME280;2386;42.138;24.746;2022-10-19T14:30:31;99514.22;;;19.10;37.28
4745;BME280;2386;42.138;24.746;2022-10-19T14:33:00;99510.94;;;19.08;36.78
4745;BME280;2386;42.138;24.746;2022-10-19T14:35:28;99520.28;;;19.07;36.65
4745;BME280;2386;42.138;24.746;2022-10-19T14:37:55;99515.94;;;19.00;36.74
4745;BME280;2386;42.138;24.746;2022-10-19T14:40:33;99514.88;;;18.96;37.23
4745;BME280;2386;42.138;24.746;2022-10-19T14:43:01;99505.59;;;18.87;37.97
4745;BME280;2386;42.138;24.746;2022-10-19T14:45:31;99510.84;;;18.84;37.82
4745;BME280;2386;42.138;24.746;2022-10-19T14:47:58;99523.50;;;18.85;38.09
4745;BME280;2386;42.138;24.746;2022-10-19T14:50:42;99513.38;;;18.80;38.46
4745;BME280;2386;42.138;24.746;2022-10-19T14:56:07;99506.34;;;18.59;39.04
4745;BME280;2386;42.138;24.746;2022-10-19T14:58:39;99500.09;;;18.53;39.75
4745;BME280;2386;42.138;24.746;2022-10-19T15:01:05;99504.78;;;18.53;39.86
4745;BME280;2386;42.138;24.746;2022-10-19T15:03:32;99501.50;;;18.51;40.24
4745;BME280;2386;42.138;24.746;2022-10-19T15:06:01;99508.13;;;18.45;39.92
4745;BME280;2386;42.138;24.746;2022-10-19T15:11:05;99506.28;;;18.30;40.79
4745;BME280;2386;42.138;24.746;2022-10-19T15:13:33;99488.25;;;18.19;41.14
4745;BME280;2386;42.138;24.746;2022-10-19T15:15:59;99496.75;;;18.17;41.64
4745;BME280;2386;42.138;24.746;2022-10-19T15:18:33;99511.88;;;18.15;41.94
4745;BME280;2386;42.138;24.746;2022-10-19T15:21:02;99512.19;;;18.08;42.47
4745;BME280;2386;42.138;24.746;2022-10-19T15:23:35;99506.78;;;17.93;42.85
4745;BME280;2386;42.138;24.746;2022-10-19T15:26:11;99509.53;;;17.88;43.26
4745;BME280;2386;42.138;24.746;2022-10-19T15:28:38;99516.41;;;17.85;43.52
4745;BME280;2386;42.138;24.746;2022-10-19T15:31:12;99517.56;;;17.79;44.22
4745;BME280;2386;42.138;24.746;2022-10-19T15:33:43;99519.25;;;17.70;44.83